createdAt,value
2022-12-14T00:01:38.210Z,99.90
2022-12-14T00:04:05.348Z,99.90
2022-12-14T00:06:33.108Z,99.90
2022-12-14T00:09:02.702Z,99.90
2022-12-14T00:11:30.314Z,99.90
2022-12-14T00:14:02.866Z,99.90
2022-12-14T00:16:32.105Z,99.90
2022-12-14T00:19:00.779Z,99.90
2022-12-14T00:21:28.442Z,99.90
2022-12-14T00:23:57.434Z,99.90
2022-12-14T00:26:27.399Z,99.90
2022-12-14T00:28:55.813Z,99.90
2022-12-14T00:31:24.022Z,99.90
2022-12-14T00:33:51.417Z,99.90
2022-12-14T00:36:18.786Z,99.90
2022-12-14T00:38:45.845Z,99.90
2022-12-14T00:41:12.789Z,99.90
2022-12-14T00:43:40.174Z,99.90
2022-12-14T00:46:07.565Z,99.90
2022-12-14T00:48:35.804Z,99.90
2022-12-14T00:51:02.961Z,99.90
2022-12-14T00:53:29.919Z,99.90
2022-12-14T00:55:57.418Z,99.90
2022-12-14T00:58:25.589Z,99.90
2022-12-14T01:01:01.385Z,99.90
2022-12-14T01:03:29.839Z,99.90
2022-12-14T01:05:57.468Z,99.90
2022-12-14T01:08:25.079Z,99.90
2022-12-14T01:10:52.574Z,99.90
2022-12-14T01:13:19.633Z,99.90
2022-12-14T01:15:46.979Z,99.90
2022-12-14T01:18:14.180Z,99.90
2022-12-14T01:20:41.081Z,99.90
2022-12-14T01:23:08.187Z,99.90
2022-12-14T01:25:36.032Z,99.90
2022-12-14T01:28:03.447Z,99.90
2022-12-14T01:30:30.652Z,99.90
2022-12-14T01:32:57.610Z,99.90
2022-12-14T01:35:24.559Z,99.90
2022-12-14T01:37:51.504Z,99.90
2022-12-14T01:40:18.514Z,99.90
2022-12-14T01:42:45.593Z,99.90
2022-12-14T01:45:19.769Z,99.90
2022-12-14T01:47:51.408Z,99.90
2022-12-14T01:50:28.830Z,99.90
2022-12-14T01:53:09.385Z,99.90
2022-12-14T01:55:41.177Z,99.90
2022-12-14T01:58:23.185Z,99.90
2022-12-14T02:00:58.316Z,99.90
2022-12-14T02:03:29.716Z,99.90
2022-12-14T02:06:04.240Z,99.90
2022-12-14T02:08:32.146Z,99.90
2022-12-14T02:11:01.185Z,99.90
2022-12-14T02:13:34.191Z,99.90
2022-12-14T02:16:01.487Z,99.90
2022-12-14T02:18:31.320Z,99.90
2022-12-14T02:21:19.089Z,99.90
2022-12-14T02:24:19.213Z,99.90
2022-12-14T02:27:14.296Z,99.90
2022-12-14T02:30:07.197Z,99.90
2022-12-14T02:32:56.042Z,99.90
2022-12-14T02:35:41.790Z,99.90
2022-12-14T02:38:36.201Z,99.90
2022-12-14T02:41:03.019Z,99.90
2022-12-14T02:43:30.275Z,99.90
2022-12-14T02:46:27.083Z,99.90
2022-12-14T02:49:27.920Z,99.90
2022-12-14T02:52:30.172Z,99.90
2022-12-14T02:55:21.437Z,99.90
2022-12-14T02:58:16.111Z,99.90
2022-12-14T03:00:44.059Z,99.90
2022-12-14T03:03:11.151Z,99.90
2022-12-14T03:05:38.144Z,99.90
2022-12-14T03:08:16.720Z,99.90
2022-12-14T03:11:02.312Z,99.90
2022-12-14T03:13:31.866Z,99.90
2022-12-14T03:16:17.084Z,99.90
2022-12-14T03:19:17.486Z,99.90
2022-12-14T03:21:50.162Z,99.90
2022-12-14T03:24:24.278Z,99.90
2022-12-14T03:27:20.418Z,99.90
2022-12-14T03:29:56.192Z,99.90
2022-12-14T03:32:26.801Z,99.90
2022-12-14T03:35:01.560Z,99.90
2022-12-14T03:37:54.828Z,99.90
2022-12-14T03:40:43.291Z,99.90
2022-12-14T03:43:18.726Z,99.90
2022-12-14T03:45:57.295Z,99.90
2022-12-14T03:48:29.884Z,99.90
2022-12-14T03:51:03.227Z,99.90
2022-12-14T03:53:33.301Z,99.90
2022-12-14T03:56:16.340Z,99.90
2022-12-14T03:58:57.278Z,99.90
2022-12-14T04:01:39.923Z,99.90
2022-12-14T04:04:30.379Z,99.90
2022-12-14T04:07:15.720Z,99.90
2022-12-14T04:09:56.501Z,99.90
2022-12-14T04:12:58.717Z,99.90
2022-12-14T04:15:49.699Z,99.90
2022-12-14T04:18:45.328Z,99.90
2022-12-14T04:21:19.665Z,99.90
2022-12-14T04:24:08.859Z,99.90
2022-12-14T04:26:40.450Z,99.90
2022-12-14T04:29:35.545Z,99.90
2022-12-14T04:32:19.487Z,99.90
2022-12-14T04:34:48.113Z,99.90
2022-12-14T04:37:18.802Z,99.90
2022-12-14T04:39:51.659Z,99.90
2022-12-14T04:42:23.580Z,99.90
2022-12-14T04:44:55.371Z,99.90
2022-12-14T04:47:30.502Z,99.90
2022-12-14T04:50:08.268Z,99.90
2022-12-14T04:52:45.394Z,99.90
2022-12-14T04:55:40.968Z,99.90
2022-12-14T04:58:08.120Z,99.90
2022-12-14T05:00:39.306Z,99.90
2022-12-14T05:03:28.669Z,99.90
2022-12-14T05:06:16.998Z,99.90
2022-12-14T05:08:53.656Z,99.90
2022-12-14T05:11:56.081Z,99.90
2022-12-14T05:14:36.498Z,99.90
2022-12-14T05:17:08.774Z,99.90
2022-12-14T05:19:37.278Z,99.90
2022-12-14T05:22:08.298Z,99.90
2022-12-14T05:24:35.423Z,99.90
2022-12-14T05:27:02.476Z,99.90
2022-12-14T05:29:29.658Z,99.90
2022-12-14T05:31:56.686Z,99.90
2022-12-14T05:34:23.824Z,99.90
2022-12-14T05:36:50.814Z,99.90
2022-12-14T05:39:17.768Z,99.90
2022-12-14T05:41:45.817Z,99.90
2022-12-14T05:44:13.635Z,99.90
2022-12-14T05:46:40.744Z,99.90
2022-12-14T05:49:08.002Z,99.90
2022-12-14T05:51:35.000Z,99.90
2022-12-14T05:54:02.068Z,99.90
2022-12-14T05:56:28.990Z,99.90
2022-12-14T05:58:55.905Z,99.90
2022-12-14T06:01:22.936Z,99.90
2022-12-14T06:03:52.619Z,99.90
2022-12-14T06:06:19.630Z,99.90
2022-12-14T06:08:47.030Z,99.90
2022-12-14T06:11:23.897Z,99.90
2022-12-14T06:13:51.302Z,99.90
2022-12-14T06:16:20.180Z,99.90
2022-12-14T06:18:52.402Z,99.90
2022-12-14T06:21:22.439Z,99.90
2022-12-14T06:23:49.351Z,99.90
2022-12-14T06:26:16.812Z,99.90
2022-12-14T06:28:44.450Z,99.90
2022-12-14T06:31:16.832Z,99.90
2022-12-14T06:33:44.076Z,99.90
2022-12-14T06:36:19.507Z,99.90
2022-12-14T06:38:46.658Z,99.90
2022-12-14T06:41:13.876Z,99.90
2022-12-14T06:43:40.806Z,99.90
2022-12-14T06:46:14.831Z,99.90
2022-12-14T06:48:44.271Z,99.90
2022-12-14T06:51:11.606Z,99.90
2022-12-14T06:53:38.553Z,99.90
2022-12-14T06:56:16.231Z,99.90
2022-12-14T06:58:43.725Z,99.90
2022-12-14T07:01:17.494Z,99.90
2022-12-14T07:03:48.676Z,99.90
2022-12-14T07:06:15.894Z,99.90
2022-12-14T07:08:43.064Z,99.90
2022-12-14T07:11:14.661Z,99.90
2022-12-14T07:13:42.250Z,99.90
2022-12-14T07:16:21.692Z,99.90
2022-12-14T07:18:49.845Z,99.90
2022-12-14T07:21:19.103Z,99.90
2022-12-14T07:23:47.531Z,99.90
2022-12-14T07:26:18.574Z,99.90
2022-12-14T07:28:46.633Z,99.90
2022-12-14T07:31:22.323Z,99.90
2022-12-14T07:33:52.050Z,99.90
2022-12-14T07:36:21.010Z,99.90
2022-12-14T07:38:49.916Z,99.90
2022-12-14T07:41:23.310Z,99.90
2022-12-14T07:43:51.952Z,99.90
2022-12-14T07:46:22.105Z,99.90
2022-12-14T07:48:57.593Z,99.90
2022-12-14T07:51:36.707Z,99.90
2022-12-14T07:54:05.708Z,99.90
2022-12-14T07:56:35.930Z,99.90
2022-12-14T07:59:04.717Z,99.90
2022-12-14T08:01:34.240Z,99.90
2022-12-14T08:04:06.626Z,99.90
2022-12-14T08:06:34.455Z,99.90
2022-12-14T08:09:01.555Z,99.90
2022-12-14T08:11:29.130Z,99.90
2022-12-14T08:14:00.612Z,99.90
2022-12-14T08:16:28.727Z,99.90
2022-12-14T08:18:57.169Z,99.90
2022-12-14T08:21:25.843Z,99.90
2022-12-14T08:23:54.527Z,99.90
2022-12-14T08:26:22.530Z,99.90
2022-12-14T08:28:49.648Z,99.90
2022-12-14T08:31:19.774Z,99.90
2022-12-14T08:33:47.588Z,99.90
2022-12-14T08:36:17.643Z,99.90
2022-12-14T08:38:44.670Z,99.90
2022-12-14T08:41:15.768Z,99.90
2022-12-14T08:43:54.861Z,99.90
2022-12-14T08:46:23.185Z,99.90
2022-12-14T08:48:52.454Z,99.90
2022-12-14T08:51:20.518Z,99.90
2022-12-14T08:53:48.499Z,99.90
2022-12-14T08:56:18.149Z,99.90
2022-12-14T08:58:45.321Z,99.90
2022-12-14T09:01:15.913Z,99.90
2022-12-14T09:03:47.076Z,99.90
2022-12-14T09:06:16.811Z,99.90
2022-12-14T09:08:44.262Z,99.90
2022-12-14T09:11:13.775Z,99.90
2022-12-14T09:13:41.796Z,99.90
2022-12-14T09:16:12.658Z,99.90
2022-12-14T09:18:39.884Z,99.90
2022-12-14T09:21:07.785Z,99.90
2022-12-14T09:23:36.002Z,99.90
2022-12-14T09:26:04.882Z,99.90
2022-12-14T09:28:33.880Z,99.90
2022-12-14T09:31:05.517Z,99.90
2022-12-14T09:33:33.507Z,99.90
2022-12-14T09:36:02.046Z,99.90
2022-12-14T09:38:33.967Z,99.90
2022-12-14T09:41:07.241Z,99.90
2022-12-14T09:43:47.141Z,99.90
2022-12-14T09:46:39.956Z,99.90
2022-12-14T09:49:22.707Z,99.90
2022-12-14T09:51:50.343Z,99.90
2022-12-14T09:54:21.240Z,99.90
2022-12-14T09:56:48.471Z,99.90
2022-12-14T09:59:17.759Z,99.90
2022-12-14T10:02:34.445Z,99.90
2022-12-14T10:05:29.435Z,99.90
2022-12-14T10:08:02.782Z,99.90
2022-12-14T10:10:59.975Z,99.90
2022-12-14T10:13:54.871Z,99.90
2022-12-14T10:16:33.646Z,99.90
2022-12-14T10:19:10.330Z,99.40
2022-12-14T10:22:19.761Z,99.30
2022-12-14T10:24:51.049Z,98.30
2022-12-14T10:27:27.364Z,98.00
2022-12-14T10:29:57.035Z,97.50
2022-12-14T10:32:35.280Z,97.30
2022-12-14T10:35:40.475Z,97.10
2022-12-14T10:38:23.787Z,97.20
2022-12-14T10:40:53.778Z,97.50
2022-12-14T10:43:34.684Z,97.40
2022-12-14T10:46:20.270Z,97.20
2022-12-14T10:49:02.554Z,97.10
2022-12-14T10:51:44.980Z,97.10
2022-12-14T10:54:25.543Z,96.30
2022-12-14T10:56:52.832Z,95.60
2022-12-14T10:59:23.582Z,94.40
2022-12-14T11:01:55.096Z,94.00
2022-12-14T11:04:47.314Z,94.10
2022-12-14T11:07:16.383Z,93.60
2022-12-14T11:09:44.088Z,93.20
2022-12-14T11:12:14.063Z,92.80
2022-12-14T11:15:03.146Z,92.30
2022-12-14T11:17:35.360Z,91.40
2022-12-14T11:20:05.592Z,91.00
2022-12-14T11:22:48.373Z,90.30
2022-12-14T11:25:27.456Z,89.60
2022-12-14T11:27:54.696Z,88.90
2022-12-14T11:30:21.725Z,87.90
2022-12-14T11:32:52.081Z,87.10
2022-12-14T11:35:20.269Z,87.10
2022-12-14T11:37:51.128Z,86.60
2022-12-14T11:40:25.366Z,86.60
2022-12-14T11:43:00.025Z,86.50
2022-12-14T11:45:26.939Z,85.60
2022-12-14T11:48:15.768Z,84.40
2022-12-14T11:50:43.892Z,84.40
2022-12-14T11:53:14.544Z,84.10
2022-12-14T11:55:48.568Z,83.40
2022-12-14T11:58:27.535Z,82.90
2022-12-14T12:01:11.025Z,82.50
2022-12-14T12:03:50.401Z,81.30
2022-12-14T12:06:26.105Z,80.30
2022-12-14T12:09:02.700Z,79.80
2022-12-14T12:11:34.762Z,78.60
2022-12-14T12:14:13.185Z,77.90
2022-12-14T12:16:44.064Z,77.70
2022-12-14T12:19:23.063Z,78.20
2022-12-14T12:21:53.074Z,78.10
2022-12-14T12:24:19.964Z,78.30
2022-12-14T12:26:58.694Z,77.20
2022-12-14T12:29:48.152Z,77.60
2022-12-14T12:32:26.698Z,78.40
2022-12-14T12:35:04.145Z,78.60
2022-12-14T12:37:45.766Z,79.10
2022-12-14T12:40:24.248Z,80.00
2022-12-14T12:43:00.060Z,81.10
2022-12-14T12:45:36.033Z,81.90
2022-12-14T12:48:10.628Z,82.70
2022-12-14T12:50:43.754Z,83.20
2022-12-14T12:53:22.670Z,83.20
2022-12-14T12:55:53.652Z,83.70
2022-12-14T12:58:24.926Z,84.10
2022-12-14T13:00:55.682Z,84.70
2022-12-14T13:03:32.426Z,84.60
2022-12-14T13:06:24.909Z,84.80
2022-12-14T13:09:01.172Z,85.40
2022-12-14T13:11:37.511Z,86.70
2022-12-14T13:14:27.405Z,87.60
2022-12-14T13:16:55.474Z,88.00
2022-12-14T13:19:51.191Z,88.50
2022-12-14T13:22:26.345Z,88.60
2022-12-14T13:24:59.244Z,88.90
2022-12-14T13:28:15.416Z,89.00
2022-12-14T13:31:16.437Z,88.60
2022-12-14T13:33:52.538Z,88.60
2022-12-14T13:36:41.490Z,88.60
2022-12-14T13:39:45.704Z,88.60
2022-12-14T13:42:42.780Z,88.50
2022-12-14T13:45:22.260Z,88.30
2022-12-14T13:47:54.628Z,88.50
2022-12-14T13:50:52.935Z,88.40
2022-12-14T13:53:42.434Z,88.30
2022-12-14T13:56:10.122Z,88.60
2022-12-14T13:58:44.595Z,88.50
2022-12-14T14:01:35.795Z,88.70
2022-12-14T14:04:15.092Z,88.60
2022-12-14T14:06:43.813Z,87.30
2022-12-14T14:09:26.106Z,86.30
2022-12-14T14:12:33.555Z,85.80
2022-12-14T14:15:26.210Z,85.60
2022-12-14T14:17:54.927Z,86.10
2022-12-14T14:21:12.704Z,86.90
2022-12-14T14:23:57.783Z,86.10
2022-12-14T14:26:27.626Z,85.40
2022-12-14T14:29:26.973Z,83.50
2022-12-14T14:32:02.768Z,83.20
2022-12-14T14:34:44.089Z,83.30
2022-12-14T14:37:20.255Z,83.90
2022-12-14T14:40:07.646Z,84.50
2022-12-14T14:43:00.025Z,85.00
2022-12-14T14:45:32.671Z,85.30
2022-12-14T14:48:02.342Z,85.40
2022-12-14T14:50:37.059Z,86.00
2022-12-14T14:53:33.101Z,86.50
2022-12-14T14:56:04.905Z,87.10
2022-12-14T14:58:39.874Z,87.60
2022-12-14T15:01:06.884Z,87.90
2022-12-14T15:03:51.838Z,88.00
2022-12-14T15:06:42.891Z,88.20
2022-12-14T15:09:09.757Z,88.40
2022-12-14T15:11:45.675Z,88.60
2022-12-14T15:14:34.976Z,89.00
2022-12-14T15:17:21.716Z,89.10
2022-12-14T15:19:59.298Z,89.00
2022-12-14T15:22:31.719Z,89.20
2022-12-14T15:25:01.388Z,89.20
2022-12-14T15:27:36.775Z,89.30
2022-12-14T15:30:19.278Z,89.50
2022-12-14T15:32:53.299Z,89.40
2022-12-14T15:35:31.739Z,89.40
2022-12-14T15:38:02.750Z,89.60
2022-12-14T15:40:31.083Z,89.80
2022-12-14T15:43:00.652Z,90.00
2022-12-14T15:45:34.605Z,90.10
2022-12-14T15:48:16.932Z,90.20
2022-12-14T15:50:46.157Z,90.20
2022-12-14T15:53:32.882Z,90.20
2022-12-14T15:56:09.971Z,90.20
2022-12-14T15:58:40.804Z,90.20
2022-12-14T16:01:29.676Z,90.30
2022-12-14T16:04:00.964Z,90.40
2022-12-14T16:06:30.317Z,90.60
2022-12-14T16:09:03.969Z,90.80
2022-12-14T16:11:37.039Z,91.00
2022-12-14T16:14:30.185Z,91.30
2022-12-14T16:16:57.838Z,91.50
2022-12-14T16:19:29.936Z,91.70
2022-12-14T16:22:18.293Z,91.80
2022-12-14T16:25:06.072Z,92.10
2022-12-14T16:27:37.957Z,92.20
2022-12-14T16:30:22.233Z,92.30
2022-12-14T16:32:53.073Z,92.50
2022-12-14T16:35:26.361Z,92.60
2022-12-14T16:37:55.818Z,92.70
2022-12-14T16:40:36.107Z,92.80
2022-12-14T16:43:04.666Z,92.90
2022-12-14T16:45:43.401Z,93.10
2022-12-14T16:48:21.218Z,93.30
2022-12-14T16:50:56.945Z,93.30
2022-12-14T16:53:29.572Z,93.40
2022-12-14T16:56:14.571Z,93.50
2022-12-14T16:58:50.607Z,93.70
2022-12-14T17:01:17.689Z,93.80
2022-12-14T17:03:52.228Z,94.00
2022-12-14T17:06:29.586Z,94.30
2022-12-14T17:08:56.507Z,94.50
2022-12-14T17:11:23.467Z,94.70
2022-12-14T17:13:50.387Z,94.90
2022-12-14T17:16:23.770Z,95.20
2022-12-14T17:18:50.999Z,95.40
2022-12-14T17:21:27.292Z,95.50
2022-12-14T17:23:56.157Z,95.80
2022-12-14T17:26:27.198Z,96.00
2022-12-14T17:28:54.798Z,96.20
2022-12-14T17:31:25.035Z,96.50
2022-12-14T17:33:54.225Z,96.70
2022-12-14T17:36:23.814Z,96.90
2022-12-14T17:38:50.760Z,97.10
2022-12-14T17:41:25.423Z,97.30
2022-12-14T17:43:57.125Z,97.70
2022-12-14T17:46:25.359Z,97.90
2022-12-14T17:48:52.456Z,98.20
2022-12-14T17:51:27.583Z,98.40
2022-12-14T17:53:56.680Z,98.60
2022-12-14T17:56:23.918Z,98.70
2022-12-14T17:58:51.112Z,98.90
2022-12-14T18:01:23.947Z,99.10
2022-12-14T18:03:51.431Z,99.30
2022-12-14T18:06:18.902Z,99.40
2022-12-14T18:08:46.894Z,99.50
2022-12-14T18:11:18.272Z,99.60
2022-12-14T18:13:45.405Z,99.70
2022-12-14T18:16:17.062Z,99.80
2022-12-14T18:18:45.955Z,99.90
2022-12-14T18:21:22.227Z,99.90
2022-12-14T18:23:50.345Z,99.90
2022-12-14T18:26:20.935Z,99.90
2022-12-14T18:28:49.847Z,99.90
2022-12-14T18:31:37.982Z,99.90
2022-12-14T18:34:05.366Z,99.90
2022-12-14T18:36:32.824Z,99.90
2022-12-14T18:38:59.811Z,99.90
2022-12-14T18:41:28.248Z,99.90
2022-12-14T18:43:55.937Z,99.90
2022-12-14T18:46:23.599Z,99.90
2022-12-14T18:48:50.670Z,99.90
2022-12-14T18:51:23.531Z,99.90
2022-12-14T18:53:51.126Z,99.90
2022-12-14T18:56:19.103Z,99.90
2022-12-14T18:58:46.510Z,99.90
2022-12-14T19:01:16.243Z,99.90
2022-12-14T19:03:45.158Z,99.90
2022-12-14T19:09:06.978Z,99.90
2022-12-14T19:11:39.511Z,99.90
2022-12-14T19:14:06.917Z,99.90
2022-12-14T19:16:34.111Z,99.90
2022-12-14T19:19:01.103Z,99.90
2022-12-14T19:21:29.702Z,99.90
2022-12-14T19:23:57.357Z,99.90
2022-12-14T19:26:24.338Z,99.90
2022-12-14T19:28:51.254Z,99.90
2022-12-14T19:31:18.262Z,99.90
2022-12-14T19:33:45.274Z,99.90
2022-12-14T19:36:12.359Z,99.90
2022-12-14T19:38:39.268Z,99.90
2022-12-14T19:41:11.923Z,99.90
2022-12-14T19:43:39.225Z,99.90
2022-12-14T19:46:11.008Z,99.90
2022-12-14T19:48:57.509Z,99.90
2022-12-14T19:51:24.503Z,99.90
2022-12-14T19:53:52.877Z,99.90
2022-12-14T19:56:20.111Z,99.90
2022-12-14T19:58:47.851Z,99.90
2022-12-14T20:01:17.582Z,99.90
2022-12-14T20:03:44.891Z,99.90
2022-12-14T20:06:31.868Z,99.90
2022-12-14T20:09:00.475Z,99.90
2022-12-14T20:11:27.782Z,99.90
2022-12-14T20:13:58.962Z,99.90
2022-12-14T20:16:29.446Z,99.90
2022-12-14T20:18:57.741Z,99.90
2022-12-14T20:21:27.222Z,99.90
2022-12-14T20:23:54.145Z,99.90
2022-12-14T20:26:22.709Z,99.90
2022-12-14T20:28:55.973Z,99.90
2022-12-14T20:31:23.468Z,99.90
2022-12-14T20:33:50.575Z,99.90
2022-12-14T20:36:18.895Z,99.90
2022-12-14T20:38:46.424Z,99.90
2022-12-14T20:41:18.359Z,99.90
2022-12-14T20:43:45.654Z,99.90
2022-12-14T20:46:26.775Z,99.90
2022-12-14T20:48:53.954Z,99.90
2022-12-14T20:51:21.166Z,99.90
2022-12-14T20:53:49.280Z,99.90
2022-12-14T20:56:16.770Z,99.90
2022-12-14T20:58:48.406Z,99.90
2022-12-14T21:01:17.094Z,99.90
2022-12-14T21:03:46.802Z,99.90
2022-12-14T21:06:20.474Z,99.90
2022-12-14T21:09:05.293Z,99.90
2022-12-14T21:11:53.891Z,99.90
2022-12-14T21:14:22.880Z,99.90
2022-12-14T21:16:50.381Z,99.90
2022-12-14T21:19:17.462Z,99.90
2022-12-14T21:21:49.942Z,99.90
2022-12-14T21:24:44.752Z,99.90
2022-12-14T21:27:14.807Z,99.90
2022-12-14T21:29:41.728Z,99.90
2022-12-14T21:32:08.746Z,99.90
2022-12-14T21:34:35.776Z,99.90
2022-12-14T21:37:02.786Z,99.90
2022-12-14T21:39:29.726Z,99.90
2022-12-14T21:42:15.750Z,99.90
2022-12-14T21:44:47.861Z,99.90
2022-12-14T21:47:27.922Z,99.90
2022-12-14T21:49:55.306Z,99.90
2022-12-14T21:52:24.622Z,99.90
2022-12-14T21:54:51.724Z,99.90
2022-12-14T21:57:50.582Z,99.90
2022-12-14T22:00:17.920Z,99.90
2022-12-14T22:02:45.000Z,99.90
2022-12-14T22:05:12.137Z,99.90
2022-12-14T22:07:39.080Z,99.90
2022-12-14T22:10:06.461Z,99.90
2022-12-14T22:12:33.462Z,99.90
2022-12-14T22:15:00.551Z,99.90
2022-12-14T22:17:28.277Z,99.90
2022-12-14T22:19:55.475Z,99.90
2022-12-14T22:22:23.052Z,99.90
2022-12-14T22:24:51.256Z,99.90
2022-12-14T22:27:19.011Z,99.90
2022-12-14T22:29:45.967Z,99.90
2022-12-14T22:32:13.187Z,99.90
2022-12-14T22:34:40.584Z,99.90
2022-12-14T22:37:07.585Z,99.90
2022-12-14T22:39:34.534Z,99.90
2022-12-14T22:42:01.482Z,99.90
2022-12-14T22:44:28.487Z,99.90
2022-12-14T22:46:55.419Z,99.90
2022-12-14T22:49:22.437Z,99.90
2022-12-14T22:51:50.445Z,99.90
2022-12-14T22:54:26.792Z,99.90
2022-12-14T22:57:15.459Z,99.90
2022-12-14T23:00:00.629Z,99.90
2022-12-14T23:02:29.918Z,99.90
2022-12-14T23:04:57.359Z,99.90
2022-12-14T23:07:24.341Z,99.90
2022-12-14T23:10:10.043Z,99.90
2022-12-14T23:12:55.352Z,99.90
2022-12-14T23:15:40.858Z,99.90
2022-12-14T23:18:26.533Z,99.90
2022-12-14T23:21:12.930Z,99.90
2022-12-14T23:23:59.676Z,99.90
2022-12-14T23:26:45.322Z,99.90
2022-12-14T23:29:31.199Z,99.90
2022-12-14T23:32:16.963Z,99.90
2022-12-14T23:35:02.315Z,99.90
2022-12-14T23:37:47.710Z,99.90
2022-12-14T23:40:33.136Z,99.90
2022-12-14T23:43:44.079Z,99.90
2022-12-14T23:46:29.455Z,99.90
2022-12-14T23:49:16.222Z,99.90
2022-12-14T23:52:02.105Z,99.90
2022-12-14T23:54:47.419Z,99.90
2022-12-14T23:57:33.270Z,99.90
